createdAt,value
2023-04-09T00:08:38.641Z,8.15
2023-04-09T00:12:40.505Z,11.98
2023-04-09T00:16:42.273Z,11.90
2023-04-09T00:20:44.769Z,10.07
2023-04-09T00:24:46.439Z,15.02
2023-04-09T00:28:48.273Z,9.82
2023-04-09T00:32:50.721Z,11.82
2023-04-09T00:36:52.534Z,9.63
2023-04-09T00:40:54.292Z,9.07
2023-04-09T00:44:56.096Z,9.07
2023-04-09T00:48:57.821Z,9.23
2023-04-09T00:52:59.561Z,8.50
2023-04-09T00:57:01.845Z,9.02
2023-04-09T01:01:03.856Z,10.68
2023-04-09T01:05:06.336Z,8.93
2023-04-09T01:09:28.657Z,11.63
2023-04-09T01:14:06.516Z,13.98
2023-04-09T01:18:16.083Z,16.52
2023-04-09T01:22:37.355Z,14.68
2023-04-09T01:26:52.579Z,18.23
2023-04-09T01:31:03.079Z,14.88
2023-04-09T01:35:07.274Z,15.32
2023-04-09T01:39:09.618Z,15.15
2023-04-09T01:43:14.013Z,13.35
2023-04-09T01:47:16.036Z,15.05
2023-04-09T01:51:18.502Z,13.50
2023-04-09T01:55:20.146Z,12.75
2023-04-09T01:59:21.803Z,14.02
2023-04-09T02:03:40.135Z,14.93
2023-04-09T02:07:46.282Z,14.05
2023-04-09T02:11:50.138Z,16.48
2023-04-09T02:15:52.757Z,13.45
2023-04-09T02:19:54.758Z,16.75
2023-04-09T02:23:56.580Z,16.35
2023-04-09T02:27:59.076Z,14.85
2023-04-09T02:32:00.795Z,17.30
2023-04-09T02:36:02.737Z,20.98
2023-04-09T02:40:04.729Z,12.05
2023-04-09T02:44:06.760Z,22.15
2023-04-09T02:48:08.564Z,15.77
2023-04-09T02:52:11.535Z,20.77
2023-04-09T02:56:13.409Z,16.90
2023-04-09T03:00:15.289Z,17.23
2023-04-09T03:04:17.384Z,16.75
2023-04-09T03:08:19.095Z,18.75
2023-04-09T03:12:20.806Z,15.38
2023-04-09T03:16:25.200Z,21.50
2023-04-09T03:20:26.928Z,17.90
2023-04-09T03:24:28.697Z,20.83
2023-04-09T03:28:35.685Z,20.08
2023-04-09T03:32:38.468Z,17.90
2023-04-09T03:36:40.469Z,17.40
2023-04-09T03:40:50.644Z,15.35
2023-04-09T03:44:55.246Z,18.55
2023-04-09T03:49:07.865Z,16.70
2023-04-09T03:53:16.532Z,18.13
2023-04-09T03:57:20.744Z,18.85
2023-04-09T04:01:25.626Z,20.10
2023-04-09T04:05:31.852Z,16.55
2023-04-09T04:09:37.875Z,22.90
2023-04-09T04:13:44.516Z,20.73
2023-04-09T04:17:46.489Z,17.83
2023-04-09T04:22:04.036Z,20.80
2023-04-09T04:26:11.067Z,18.60
2023-04-09T04:30:13.271Z,18.65
2023-04-09T04:34:28.392Z,16.73
2023-04-09T04:38:41.359Z,21.65
2023-04-09T04:42:49.031Z,28.05
2023-04-09T04:46:51.531Z,27.88
2023-04-09T04:51:01.252Z,23.52
2023-04-09T04:55:10.788Z,27.38
2023-04-09T04:59:12.662Z,21.77
2023-04-09T05:03:34.682Z,21.48
2023-04-09T05:07:58.666Z,18.45
2023-04-09T05:12:01.423Z,22.30
2023-04-09T05:16:04.044Z,25.35
2023-04-09T05:20:08.608Z,24.73
2023-04-09T05:24:27.301Z,17.67
2023-04-09T05:28:30.023Z,21.27
2023-04-09T05:32:41.585Z,18.23
2023-04-09T05:36:43.434Z,20.85
2023-04-09T05:44:48.703Z,18.25
2023-04-09T05:48:54.531Z,19.30
2023-04-09T05:52:58.380Z,25.35
2023-04-09T05:57:07.198Z,20.33
2023-04-09T06:01:12.000Z,21.90
2023-04-09T06:05:14.056Z,24.10
2023-04-09T06:09:15.785Z,22.07
2023-04-09T06:13:17.719Z,25.02
2023-04-09T06:17:19.519Z,23.03
2023-04-09T06:21:21.436Z,28.03
2023-04-09T06:25:23.090Z,24.58
2023-04-09T06:29:24.808Z,28.75
2023-04-09T06:33:27.099Z,23.88
2023-04-09T06:37:28.759Z,26.48
2023-04-09T06:41:30.945Z,29.02
2023-04-09T06:45:33.766Z,25.95
2023-04-09T06:49:35.990Z,27.20
2023-04-09T06:53:40.941Z,26.73
2023-04-09T06:57:42.809Z,25.40
2023-04-09T07:01:45.163Z,24.95
2023-04-09T07:05:47.376Z,23.40
2023-04-09T07:09:49.270Z,17.80
2023-04-09T07:13:51.436Z,22.98
2023-04-09T07:17:53.385Z,27.10
2023-04-09T07:21:55.599Z,25.25
2023-04-09T07:25:57.318Z,25.70
2023-04-09T07:29:59.950Z,23.52
2023-04-09T07:34:01.587Z,26.48
2023-04-09T07:38:03.517Z,22.92
2023-04-09T07:42:06.504Z,23.87
2023-04-09T07:50:10.590Z,22.35
2023-04-09T07:54:12.272Z,25.40
2023-04-09T07:58:13.928Z,23.23
2023-04-09T08:02:15.847Z,21.27
2023-04-09T08:06:17.548Z,24.33
2023-04-09T08:10:19.612Z,40.60
2023-04-09T08:14:21.564Z,23.30
2023-04-09T08:18:23.294Z,19.48
2023-04-09T08:22:24.968Z,21.48
2023-04-09T08:26:27.458Z,23.35
2023-04-09T08:30:29.509Z,21.88
2023-04-09T08:34:31.153Z,19.67
2023-04-09T08:38:32.798Z,19.90
2023-04-09T08:42:35.901Z,24.23
2023-04-09T08:46:37.593Z,25.00
2023-04-09T08:50:39.578Z,24.55
2023-04-09T08:54:41.282Z,19.00
2023-04-09T08:58:47.246Z,20.20
2023-04-09T09:03:11.935Z,22.25
2023-04-09T09:07:14.095Z,19.38
2023-04-09T09:11:27.242Z,19.58
2023-04-09T09:15:30.264Z,22.13
2023-04-09T09:19:33.796Z,19.50
2023-04-09T09:23:36.898Z,21.13
2023-04-09T09:27:40.685Z,20.67
2023-04-09T09:31:51.736Z,17.13
2023-04-09T09:35:54.687Z,13.70
2023-04-09T09:39:57.101Z,15.63
2023-04-09T09:43:58.930Z,13.85
2023-04-09T09:48:00.784Z,12.02
2023-04-09T09:52:04.848Z,12.67
2023-04-09T09:56:12.035Z,12.30
2023-04-09T10:00:15.836Z,15.07
2023-04-09T10:04:20.168Z,13.63
2023-04-09T10:08:23.731Z,13.98
2023-04-09T10:12:27.386Z,12.23
2023-04-09T10:16:29.198Z,11.95
2023-04-09T10:20:42.032Z,11.87
2023-04-09T10:28:46.463Z,10.80
2023-04-09T10:32:48.227Z,13.43
2023-04-09T10:36:55.052Z,12.38
2023-04-09T10:40:56.750Z,12.07
2023-04-09T10:45:08.288Z,12.23
2023-04-09T10:49:17.206Z,13.23
2023-04-09T10:53:26.390Z,14.88
2023-04-09T10:57:28.170Z,12.23
2023-04-09T11:01:31.093Z,12.07
2023-04-09T11:05:34.672Z,12.02
2023-04-09T11:09:36.676Z,10.00
2023-04-09T11:13:38.513Z,9.37
2023-04-09T11:17:40.911Z,7.47
2023-04-09T11:21:46.432Z,9.10
2023-04-09T11:25:50.803Z,7.53
2023-04-09T11:29:56.306Z,8.65
2023-04-09T11:33:57.985Z,8.50
2023-04-09T11:37:59.752Z,9.43
2023-04-09T11:42:02.116Z,10.43
2023-04-09T11:46:04.756Z,8.90
2023-04-09T11:50:08.149Z,8.15
2023-04-09T11:54:12.082Z,8.50
2023-04-09T11:58:14.808Z,9.35
2023-04-09T12:02:18.603Z,7.43
2023-04-09T12:06:23.163Z,7.15
2023-04-09T12:10:29.813Z,7.95
2023-04-09T12:14:31.525Z,8.55
2023-04-09T12:18:36.916Z,8.07
2023-04-09T12:22:41.055Z,8.27
2023-04-09T12:26:43.783Z,7.72
2023-04-09T12:34:47.650Z,8.05
2023-04-09T12:38:49.894Z,9.00
2023-04-09T12:42:51.842Z,10.25
2023-04-09T12:46:53.843Z,8.30
2023-04-09T12:50:55.540Z,8.17
2023-04-09T12:54:57.268Z,8.38
2023-04-09T12:58:59.070Z,8.98
2023-04-09T13:03:00.886Z,7.23
2023-04-09T13:07:02.658Z,7.60
2023-04-09T13:11:04.624Z,8.03
2023-04-09T13:15:06.919Z,7.70
2023-04-09T13:19:10.126Z,5.82
2023-04-09T13:23:11.864Z,7.32
2023-04-09T13:27:14.084Z,7.10
2023-04-09T13:31:15.836Z,6.45
2023-04-09T13:35:19.209Z,6.03
2023-04-09T13:39:20.867Z,7.00
2023-04-09T13:43:28.076Z,6.40
2023-04-09T13:47:30.527Z,7.50
2023-04-09T13:51:32.385Z,6.78
2023-04-09T13:55:34.408Z,6.70
2023-04-09T13:59:38.194Z,6.97
2023-04-09T14:03:40.736Z,6.22
2023-04-09T14:11:44.072Z,6.90
2023-04-09T14:15:46.403Z,7.63
2023-04-09T14:19:48.209Z,6.03
2023-04-09T14:23:50.046Z,5.00
2023-04-09T14:27:52.280Z,5.60
2023-04-09T14:31:57.158Z,5.70
2023-04-09T14:35:59.348Z,6.68
2023-04-09T14:40:01.180Z,5.57
2023-04-09T14:44:02.986Z,5.07
2023-04-09T14:48:04.648Z,4.93
2023-04-09T14:52:06.588Z,4.03
2023-04-09T14:56:08.441Z,5.77
2023-04-09T15:00:14.086Z,4.83
2023-04-09T15:04:16.280Z,4.10
2023-04-09T15:08:18.093Z,5.15
2023-04-09T15:12:19.790Z,4.68
2023-04-09T15:16:27.259Z,3.67
2023-04-09T15:20:29.004Z,3.83
2023-04-09T15:24:30.673Z,4.05
2023-04-09T15:28:33.381Z,5.20
2023-04-09T15:36:36.720Z,5.40
2023-04-09T15:40:42.601Z,5.32
2023-04-09T15:45:04.996Z,3.83
2023-04-09T15:49:07.492Z,4.68
2023-04-09T15:53:09.197Z,4.28
2023-04-09T15:57:11.099Z,3.42
2023-04-09T16:01:13.039Z,4.77
2023-04-09T16:05:15.735Z,3.97
2023-04-09T16:09:17.522Z,4.97
2023-04-09T16:13:19.260Z,3.72
2023-04-09T16:17:20.984Z,3.08
2023-04-09T16:21:22.799Z,3.22
2023-04-09T16:25:24.689Z,2.95
2023-04-09T16:29:26.515Z,3.13
2023-04-09T16:33:29.105Z,3.53
2023-04-09T16:37:31.371Z,3.92
2023-04-09T16:41:35.011Z,3.60
2023-04-09T16:45:39.036Z,4.47
2023-04-09T16:49:41.002Z,3.20
2023-04-09T16:53:42.747Z,3.93
2023-04-09T16:57:45.079Z,4.13
2023-04-09T17:01:46.981Z,4.97
2023-04-09T17:05:49.501Z,3.37
2023-04-09T17:09:51.563Z,3.58
2023-04-09T17:13:53.872Z,3.60
2023-04-09T17:17:55.568Z,5.47
2023-04-09T17:21:57.319Z,5.63
2023-04-09T17:26:01.180Z,3.70
2023-04-09T17:30:04.398Z,4.60
2023-04-09T17:34:08.683Z,5.15
2023-04-09T17:38:14.073Z,5.13
2023-04-09T17:42:15.753Z,4.28
2023-04-09T17:46:18.076Z,6.22
2023-04-09T17:50:19.913Z,3.95
2023-04-09T17:54:21.900Z,4.47
2023-04-09T17:58:25.053Z,4.87
2023-04-09T18:02:27.687Z,7.80
2023-04-09T18:10:31.879Z,3.88
2023-04-09T18:14:33.709Z,5.38
2023-04-09T18:18:35.380Z,4.80
2023-04-09T18:22:38.329Z,4.75
2023-04-09T18:26:40.001Z,5.18
2023-04-09T18:30:42.088Z,5.47
2023-04-09T18:34:45.242Z,4.43
2023-04-09T18:38:47.097Z,5.55
2023-04-09T18:42:55.093Z,6.32
2023-04-09T18:46:57.204Z,4.95
2023-04-09T18:51:00.570Z,6.30
2023-04-09T18:55:02.246Z,4.75
2023-04-09T18:59:05.061Z,6.72
2023-04-09T19:03:07.313Z,4.60
2023-04-09T19:07:09.748Z,6.65
2023-04-09T19:11:12.721Z,6.73
2023-04-09T19:19:15.952Z,5.93
2023-04-09T19:23:17.719Z,5.90
2023-04-09T19:27:19.625Z,4.97
2023-04-09T19:31:21.402Z,5.55
2023-04-09T19:35:23.321Z,6.40
2023-04-09T19:39:25.015Z,6.80
2023-04-09T19:43:27.058Z,5.57
2023-04-09T19:47:29.143Z,7.45
2023-04-09T19:51:30.866Z,6.70
2023-04-09T19:55:33.527Z,6.72
2023-04-09T19:59:37.565Z,5.55
2023-04-09T20:03:41.671Z,7.93
2023-04-09T20:07:44.485Z,6.50
2023-04-09T20:11:46.871Z,5.80
2023-04-09T20:15:50.027Z,6.97
2023-04-09T20:19:51.698Z,4.85
2023-04-09T20:23:53.359Z,7.63
2023-04-09T20:27:55.366Z,6.20
2023-04-09T20:31:57.926Z,5.93
2023-04-09T20:36:00.115Z,8.15
2023-04-09T20:40:02.170Z,7.60
2023-04-09T20:44:05.005Z,5.10
2023-04-09T20:48:07.502Z,5.47
2023-04-09T20:52:09.691Z,6.85
2023-04-09T20:56:12.784Z,6.53
2023-04-09T21:00:15.194Z,8.63
2023-04-09T21:04:19.774Z,7.63
2023-04-09T21:08:21.524Z,6.25
2023-04-09T21:12:23.161Z,7.40
2023-04-09T21:16:27.329Z,7.68
2023-04-09T21:20:29.073Z,8.02
2023-04-09T21:24:31.552Z,8.55
2023-04-09T21:28:33.325Z,7.30
2023-04-09T21:32:35.147Z,7.22
2023-04-09T21:36:39.456Z,8.63
2023-04-09T21:40:41.170Z,8.75
2023-04-09T21:44:42.937Z,7.88
2023-04-09T21:48:44.609Z,8.02
2023-04-09T21:52:47.421Z,6.88
2023-04-09T21:56:49.066Z,10.25
2023-04-09T22:00:50.835Z,9.55
2023-04-09T22:04:52.519Z,9.60
2023-04-09T22:08:57.157Z,9.13
2023-04-09T22:12:59.681Z,7.97
2023-04-09T22:17:02.270Z,9.05
2023-04-09T22:21:04.980Z,8.63
2023-04-09T22:25:07.262Z,10.00
2023-04-09T22:29:08.928Z,9.23
2023-04-09T22:33:10.827Z,8.20
2023-04-09T22:37:12.478Z,8.93
2023-04-09T22:41:16.089Z,7.53
2023-04-09T22:45:17.795Z,9.07
2023-04-09T22:49:19.595Z,8.02
2023-04-09T22:53:21.878Z,10.77
2023-04-09T22:57:23.579Z,7.28
2023-04-09T23:01:25.385Z,9.52
2023-04-09T23:05:27.131Z,8.70
2023-04-09T23:09:30.409Z,8.15
2023-04-09T23:13:32.058Z,8.15
2023-04-09T23:17:35.275Z,8.20
2023-04-09T23:21:37.239Z,8.98
2023-04-09T23:25:38.916Z,9.38
2023-04-09T23:29:40.528Z,8.65
2023-04-09T23:33:42.286Z,9.95
2023-04-09T23:37:44.092Z,10.45
2023-04-09T23:41:45.959Z,10.13
2023-04-09T23:45:49.939Z,8.68
2023-04-09T23:49:51.591Z,10.13
2023-04-09T23:53:53.458Z,10.02
2023-04-09T23:57:55.307Z,9.27
